sensor_id;sensor_type;location;lat;lon;timestamp;P1;durP1;ratioP1;P2;durP2;ratioP2
67554;SDS011;54385;53.516;49.456;2023-03-16T00:01:42;1.10;;;0.60;;
67554;SDS011;54385;53.516;49.456;2023-03-16T00:04:08;0.93;;;0.57;;
67554;SDS011;54385;53.516;49.456;2023-03-16T00:06:35;1.85;;;0.65;;
67554;SDS011;54385;53.516;49.456;2023-03-16T00:09:02;1.95;;;0.70;;
67554;SDS011;54385;53.516;49.456;2023-03-16T00:11:29;1.25;;;0.50;;
67554;SDS011;54385;53.516;49.456;2023-03-16T00:13:55;0.63;;;0.50;;
67554;SDS011;54385;53.516;49.456;2023-03-16T00:16:23;1.73;;;0.52;;
67554;SDS011;54385;53.516;49.456;2023-03-16T00:18:49;0.95;;;0.50;;
67554;SDS011;54385;53.516;49.456;2023-03-16T00:21:16;1.67;;;0.55;;
67554;SDS011;54385;53.516;49.456;2023-03-16T00:23:42;1.15;;;0.68;;
67554;SDS011;54385;53.516;49.456;2023-03-16T00:26:08;0.73;;;0.63;;
67554;SDS011;54385;53.516;49.456;2023-03-16T00:28:37;2.00;;;0.70;;
67554;SDS011;54385;53.516;49.456;2023-03-16T00:31:05;0.68;;;0.40;;
67554;SDS011;54385;53.516;49.456;2023-03-16T00:33:33;2.38;;;0.50;;
67554;SDS011;54385;53.516;49.456;2023-03-16T00:36:03;0.90;;;0.50;;
67554;SDS011;54385;53.516;49.456;2023-03-16T00:41:00;1.13;;;0.50;;
67554;SDS011;54385;53.516;49.456;2023-03-16T00:43:33;0.52;;;0.38;;
67554;SDS011;54385;53.516;49.456;2023-03-16T00:46:10;0.50;;;0.40;;
67554;SDS011;54385;53.516;49.456;2023-03-16T00:48:39;1.52;;;0.52;;
67554;SDS011;54385;53.516;49.456;2023-03-16T00:51:08;0.95;;;0.68;;
67554;SDS011;54385;53.516;49.456;2023-03-16T00:53:38;1.15;;;0.80;;
67554;SDS011;54385;53.516;49.456;2023-03-16T00:56:05;0.90;;;0.60;;
67554;SDS011;54385;53.516;49.456;2023-03-16T00:58:32;0.68;;;0.38;;
67554;SDS011;54385;53.516;49.456;2023-03-16T01:01:04;0.73;;;0.50;;
67554;SDS011;54385;53.516;49.456;2023-03-16T01:03:32;1.58;;;0.73;;
67554;SDS011;54385;53.516;49.456;2023-03-16T01:06:02;2.67;;;0.93;;
67554;SDS011;54385;53.516;49.456;2023-03-16T01:08:30;1.13;;;0.70;;
67554;SDS011;54385;53.516;49.456;2023-03-16T01:11:04;1.90;;;0.65;;
67554;SDS011;54385;53.516;49.456;2023-03-16T01:13:32;0.93;;;0.40;;
67554;SDS011;54385;53.516;49.456;2023-03-16T01:15:59;1.77;;;0.70;;
67554;SDS011;54385;53.516;49.456;2023-03-16T01:18:26;2.03;;;0.50;;
67554;SDS011;54385;53.516;49.456;2023-03-16T01:20:53;0.98;;;0.60;;
67554;SDS011;54385;53.516;49.456;2023-03-16T01:23:19;3.25;;;0.70;;
67554;SDS011;54385;53.516;49.456;2023-03-16T01:25:46;2.03;;;0.70;;
67554;SDS011;54385;53.516;49.456;2023-03-16T01:28:20;1.80;;;1.40;;
67554;SDS011;54385;53.516;49.456;2023-03-16T01:30:49;0.80;;;0.65;;
67554;SDS011;54385;53.516;49.456;2023-03-16T01:33:22;0.73;;;0.55;;
67554;SDS011;54385;53.516;49.456;2023-03-16T01:35:56;1.08;;;0.60;;
67554;SDS011;54385;53.516;49.456;2023-03-16T01:38:24;0.70;;;0.50;;
67554;SDS011;54385;53.516;49.456;2023-03-16T01:40:51;1.17;;;0.43;;
67554;SDS011;54385;53.516;49.456;2023-03-16T01:43:20;1.95;;;0.60;;
67554;SDS011;54385;53.516;49.456;2023-03-16T01:46:08;1.23;;;0.68;;
67554;SDS011;54385;53.516;49.456;2023-03-16T01:48:44;0.47;;;0.35;;
67554;SDS011;54385;53.516;49.456;2023-03-16T01:51:23;2.17;;;0.47;;
67554;SDS011;54385;53.516;49.456;2023-03-16T01:54:01;0.55;;;0.43;;
67554;SDS011;54385;53.516;49.456;2023-03-16T01:56:38;3.22;;;0.43;;
67554;SDS011;54385;53.516;49.456;2023-03-16T01:59:13;0.52;;;0.43;;
67554;SDS011;54385;53.516;49.456;2023-03-16T02:04:12;1.73;;;0.65;;
67554;SDS011;54385;53.516;49.456;2023-03-16T02:06:47;0.63;;;0.50;;
67554;SDS011;54385;53.516;49.456;2023-03-16T02:09:15;1.23;;;0.63;;
67554;SDS011;54385;53.516;49.456;2023-03-16T02:11:42;1.85;;;0.60;;
67554;SDS011;54385;53.516;49.456;2023-03-16T02:14:09;2.20;;;0.70;;
67554;SDS011;54385;53.516;49.456;2023-03-16T02:16:36;1.20;;;0.70;;
67554;SDS011;54385;53.516;49.456;2023-03-16T02:19:08;1.98;;;0.70;;
67554;SDS011;54385;53.516;49.456;2023-03-16T02:21:49;0.73;;;0.52;;
67554;SDS011;54385;53.516;49.456;2023-03-16T02:24:23;2.60;;;0.70;;
67554;SDS011;54385;53.516;49.456;2023-03-16T02:26:57;1.70;;;1.00;;
67554;SDS011;54385;53.516;49.456;2023-03-16T02:32:18;0.85;;;0.50;;
67554;SDS011;54385;53.516;49.456;2023-03-16T02:34:47;0.45;;;0.40;;
67554;SDS011;54385;53.516;49.456;2023-03-16T02:37:14;3.33;;;0.90;;
67554;SDS011;54385;53.516;49.456;2023-03-16T02:39:40;1.60;;;0.70;;
67554;SDS011;54385;53.516;49.456;2023-03-16T02:42:14;1.90;;;0.68;;
67554;SDS011;54385;53.516;49.456;2023-03-16T02:44:44;1.10;;;0.68;;
67554;SDS011;54385;53.516;49.456;2023-03-16T02:47:19;0.88;;;0.60;;
67554;SDS011;54385;53.516;49.456;2023-03-16T02:49:50;1.63;;;0.55;;
67554;SDS011;54385;53.516;49.456;2023-03-16T02:52:16;1.05;;;0.50;;
67554;SDS011;54385;53.516;49.456;2023-03-16T02:54:43;1.13;;;0.80;;
67554;SDS011;54385;53.516;49.456;2023-03-16T02:57:10;1.10;;;0.60;;
67554;SDS011;54385;53.516;49.456;2023-03-16T02:59:37;2.25;;;0.60;;
67554;SDS011;54385;53.516;49.456;2023-03-16T03:02:03;1.92;;;0.93;;
67554;SDS011;54385;53.516;49.456;2023-03-16T03:04:31;3.33;;;0.70;;
67554;SDS011;54385;53.516;49.456;2023-03-16T03:06:58;4.10;;;0.82;;
67554;SDS011;54385;53.516;49.456;2023-03-16T03:09:30;1.52;;;1.00;;
67554;SDS011;54385;53.516;49.456;2023-03-16T03:11:58;2.00;;;0.70;;
67554;SDS011;54385;53.516;49.456;2023-03-16T03:14:24;0.65;;;0.55;;
67554;SDS011;54385;53.516;49.456;2023-03-16T03:16:53;5.13;;;1.33;;
67554;SDS011;54385;53.516;49.456;2023-03-16T03:21:45;1.35;;;0.70;;
67554;SDS011;54385;53.516;49.456;2023-03-16T03:24:12;2.65;;;0.90;;
67554;SDS011;54385;53.516;49.456;2023-03-16T03:26:38;3.55;;;0.70;;
67554;SDS011;54385;53.516;49.456;2023-03-16T03:29:05;0.88;;;0.70;;
67554;SDS011;54385;53.516;49.456;2023-03-16T03:31:34;2.67;;;0.90;;
67554;SDS011;54385;53.516;49.456;2023-03-16T03:34:02;4.20;;;1.55;;
67554;SDS011;54385;53.516;49.456;2023-03-16T03:36:33;6.55;;;1.27;;
67554;SDS011;54385;53.516;49.456;2023-03-16T03:39:01;7.45;;;2.72;;
67554;SDS011;54385;53.516;49.456;2023-03-16T03:41:30;5.88;;;2.10;;
67554;SDS011;54385;53.516;49.456;2023-03-16T03:44:03;7.97;;;3.17;;
67554;SDS011;54385;53.516;49.456;2023-03-16T03:46:30;4.68;;;2.30;;
67554;SDS011;54385;53.516;49.456;2023-03-16T03:48:58;5.03;;;2.30;;
67554;SDS011;54385;53.516;49.456;2023-03-16T03:51:28;3.47;;;1.98;;
67554;SDS011;54385;53.516;49.456;2023-03-16T03:53:57;2.95;;;1.60;;
67554;SDS011;54385;53.516;49.456;2023-03-16T03:56:24;1.80;;;0.93;;
67554;SDS011;54385;53.516;49.456;2023-03-16T03:58:51;3.13;;;1.30;;
67554;SDS011;54385;53.516;49.456;2023-03-16T04:01:18;2.38;;;1.40;;
67554;SDS011;54385;53.516;49.456;2023-03-16T04:03:44;2.90;;;1.50;;
67554;SDS011;54385;53.516;49.456;2023-03-16T04:06:10;1.85;;;1.17;;
67554;SDS011;54385;53.516;49.456;2023-03-16T04:08:37;5.30;;;1.83;;
67554;SDS011;54385;53.516;49.456;2023-03-16T04:11:03;3.25;;;0.80;;
67554;SDS011;54385;53.516;49.456;2023-03-16T04:13:30;3.33;;;1.05;;
67554;SDS011;54385;53.516;49.456;2023-03-16T04:15:59;6.55;;;1.10;;
67554;SDS011;54385;53.516;49.456;2023-03-16T04:18:29;1.52;;;1.20;;
67554;SDS011;54385;53.516;49.456;2023-03-16T04:21:03;2.58;;;1.15;;
67554;SDS011;54385;53.516;49.456;2023-03-16T04:23:37;1.77;;;1.40;;
67554;SDS011;54385;53.516;49.456;2023-03-16T04:26:04;4.07;;;1.42;;
67554;SDS011;54385;53.516;49.456;2023-03-16T04:28:31;3.72;;;1.58;;
67554;SDS011;54385;53.516;49.456;2023-03-16T04:31:01;3.47;;;1.20;;
67554;SDS011;54385;53.516;49.456;2023-03-16T04:33:30;2.67;;;1.30;;
67554;SDS011;54385;53.516;49.456;2023-03-16T04:35:56;2.92;;;1.00;;
67554;SDS011;54385;53.516;49.456;2023-03-16T04:38:24;4.93;;;2.58;;
67554;SDS011;54385;53.516;49.456;2023-03-16T04:40:54;4.68;;;1.23;;
67554;SDS011;54385;53.516;49.456;2023-03-16T04:43:24;3.25;;;1.00;;
67554;SDS011;54385;53.516;49.456;2023-03-16T04:45:50;6.10;;;1.42;;
67554;SDS011;54385;53.516;49.456;2023-03-16T04:48:17;3.25;;;1.42;;
67554;SDS011;54385;53.516;49.456;2023-03-16T04:50:46;3.03;;;1.70;;
67554;SDS011;54385;53.516;49.456;2023-03-16T04:53:16;5.55;;;1.80;;
67554;SDS011;54385;53.516;49.456;2023-03-16T04:55:43;6.88;;;1.83;;
67554;SDS011;54385;53.516;49.456;2023-03-16T04:58:15;3.92;;;1.90;;
67554;SDS011;54385;53.516;49.456;2023-03-16T05:03:08;5.50;;;1.75;;
67554;SDS011;54385;53.516;49.456;2023-03-16T05:05:38;3.05;;;1.40;;
67554;SDS011;54385;53.516;49.456;2023-03-16T05:08:05;3.17;;;1.42;;
67554;SDS011;54385;53.516;49.456;2023-03-16T05:10:32;4.60;;;1.83;;
67554;SDS011;54385;53.516;49.456;2023-03-16T05:12:59;2.58;;;1.08;;
67554;SDS011;54385;53.516;49.456;2023-03-16T05:15:26;5.35;;;1.88;;
67554;SDS011;54385;53.516;49.456;2023-03-16T05:17:56;3.55;;;1.98;;
67554;SDS011;54385;53.516;49.456;2023-03-16T05:20:23;4.32;;;2.00;;
67554;SDS011;54385;53.516;49.456;2023-03-16T05:22:50;4.18;;;1.92;;
67554;SDS011;54385;53.516;49.456;2023-03-16T05:25:17;2.25;;;1.30;;
67554;SDS011;54385;53.516;49.456;2023-03-16T05:27:45;4.65;;;1.42;;
67554;SDS011;54385;53.516;49.456;2023-03-16T05:30:14;3.83;;;2.28;;
67554;SDS011;54385;53.516;49.456;2023-03-16T05:32:41;4.40;;;1.85;;
67554;SDS011;54385;53.516;49.456;2023-03-16T05:35:09;6.63;;;2.03;;
67554;SDS011;54385;53.516;49.456;2023-03-16T05:37:38;2.83;;;1.10;;
67554;SDS011;54385;53.516;49.456;2023-03-16T05:40:12;5.00;;;1.77;;
67554;SDS011;54385;53.516;49.456;2023-03-16T05:42:43;5.05;;;1.38;;
67554;SDS011;54385;53.516;49.456;2023-03-16T05:45:14;2.50;;;1.20;;
67554;SDS011;54385;53.516;49.456;2023-03-16T05:47:42;4.28;;;1.40;;
67554;SDS011;54385;53.516;49.456;2023-03-16T05:50:09;3.40;;;1.60;;
67554;SDS011;54385;53.516;49.456;2023-03-16T05:52:38;14.15;;;3.17;;
67554;SDS011;54385;53.516;49.456;2023-03-16T05:55:06;5.57;;;1.55;;
67554;SDS011;54385;53.516;49.456;2023-03-16T05:57:36;3.75;;;1.38;;
67554;SDS011;54385;53.516;49.456;2023-03-16T06:00:03;2.03;;;1.10;;
67554;SDS011;54385;53.516;49.456;2023-03-16T06:02:44;4.35;;;1.42;;
67554;SDS011;54385;53.516;49.456;2023-03-16T06:05:13;2.58;;;1.40;;
67554;SDS011;54385;53.516;49.456;2023-03-16T06:07:39;2.38;;;1.00;;
67554;SDS011;54385;53.516;49.456;2023-03-16T06:10:06;5.10;;;1.20;;
67554;SDS011;54385;53.516;49.456;2023-03-16T06:12:34;3.72;;;1.80;;
67554;SDS011;54385;53.516;49.456;2023-03-16T06:15:00;3.28;;;1.17;;
67554;SDS011;54385;53.516;49.456;2023-03-16T06:17:27;4.40;;;1.60;;
67554;SDS011;54385;53.516;49.456;2023-03-16T06:19:54;8.35;;;2.05;;
67554;SDS011;54385;53.516;49.456;2023-03-16T06:22:21;3.55;;;1.38;;
67554;SDS011;54385;53.516;49.456;2023-03-16T06:24:48;2.38;;;1.00;;
67554;SDS011;54385;53.516;49.456;2023-03-16T06:27:15;6.75;;;1.40;;
67554;SDS011;54385;53.516;49.456;2023-03-16T06:29:46;8.35;;;2.67;;
67554;SDS011;54385;53.516;49.456;2023-03-16T06:32:13;6.38;;;1.42;;
67554;SDS011;54385;53.516;49.456;2023-03-16T06:37:06;5.68;;;1.73;;
67554;SDS011;54385;53.516;49.456;2023-03-16T06:39:32;3.72;;;0.95;;
67554;SDS011;54385;53.516;49.456;2023-03-16T06:41:59;1.65;;;1.00;;
67554;SDS011;54385;53.516;49.456;2023-03-16T06:44:25;1.58;;;0.77;;
67554;SDS011;54385;53.516;49.456;2023-03-16T06:46:52;6.97;;;2.00;;
67554;SDS011;54385;53.516;49.456;2023-03-16T06:49:18;4.78;;;1.00;;
67554;SDS011;54385;53.516;49.456;2023-03-16T06:51:46;4.95;;;1.25;;
67554;SDS011;54385;53.516;49.456;2023-03-16T06:56:38;4.10;;;1.08;;
67554;SDS011;54385;53.516;49.456;2023-03-16T06:59:05;2.22;;;0.90;;
67554;SDS011;54385;53.516;49.456;2023-03-16T07:01:32;2.80;;;1.00;;
67554;SDS011;54385;53.516;49.456;2023-03-16T07:04:24;6.28;;;2.38;;
67554;SDS011;54385;53.516;49.456;2023-03-16T07:09:17;2.45;;;1.20;;
67554;SDS011;54385;53.516;49.456;2023-03-16T07:14:09;13.95;;;2.30;;
67554;SDS011;54385;53.516;49.456;2023-03-16T07:16:36;4.68;;;1.15;;
67554;SDS011;54385;53.516;49.456;2023-03-16T07:19:03;7.30;;;1.50;;
67554;SDS011;54385;53.516;49.456;2023-03-16T07:24:04;10.23;;;3.88;;
67554;SDS011;54385;53.516;49.456;2023-03-16T07:26:30;4.43;;;1.20;;
67554;SDS011;54385;53.516;49.456;2023-03-16T07:29:00;5.15;;;1.23;;
67554;SDS011;54385;53.516;49.456;2023-03-16T07:33:52;7.30;;;2.17;;
67554;SDS011;54385;53.516;49.456;2023-03-16T07:36:19;7.03;;;2.13;;
67554;SDS011;54385;53.516;49.456;2023-03-16T07:41:11;5.68;;;1.20;;
67554;SDS011;54385;53.516;49.456;2023-03-16T07:43:38;4.88;;;1.27;;
67554;SDS011;54385;53.516;49.456;2023-03-16T07:48:35;2.38;;;1.40;;
67554;SDS011;54385;53.516;49.456;2023-03-16T07:51:04;3.58;;;1.17;;
67554;SDS011;54385;53.516;49.456;2023-03-16T07:53:34;3.95;;;1.27;;
67554;SDS011;54385;53.516;49.456;2023-03-16T07:56:00;5.88;;;3.10;;
67554;SDS011;54385;53.516;49.456;2023-03-16T07:58:30;4.97;;;3.65;;
67554;SDS011;54385;53.516;49.456;2023-03-16T08:01:00;3.35;;;2.45;;
67554;SDS011;54385;53.516;49.456;2023-03-16T08:03:27;5.32;;;2.28;;
67554;SDS011;54385;53.516;49.456;2023-03-16T08:05:57;5.28;;;1.80;;
67554;SDS011;54385;53.516;49.456;2023-03-16T08:08:24;4.43;;;1.60;;
67554;SDS011;54385;53.516;49.456;2023-03-16T08:10:53;2.15;;;0.95;;
67554;SDS011;54385;53.516;49.456;2023-03-16T08:13:20;10.10;;;1.73;;
67554;SDS011;54385;53.516;49.456;2023-03-16T08:15:47;3.78;;;1.40;;
67554;SDS011;54385;53.516;49.456;2023-03-16T08:18:16;9.68;;;2.13;;
67554;SDS011;54385;53.516;49.456;2023-03-16T08:20:42;2.58;;;1.08;;
67554;SDS011;54385;53.516;49.456;2023-03-16T08:23:12;3.15;;;1.00;;
67554;SDS011;54385;53.516;49.456;2023-03-16T08:25:40;3.60;;;0.98;;
67554;SDS011;54385;53.516;49.456;2023-03-16T08:28:07;4.65;;;0.80;;
67554;SDS011;54385;53.516;49.456;2023-03-16T08:30:34;2.35;;;0.90;;
67554;SDS011;54385;53.516;49.456;2023-03-16T08:33:01;3.65;;;0.95;;
67554;SDS011;54385;53.516;49.456;2023-03-16T08:35:28;3.55;;;0.88;;
67554;SDS011;54385;53.516;49.456;2023-03-16T08:38:06;4.40;;;1.10;;
67554;SDS011;54385;53.516;49.456;2023-03-16T08:40:38;3.45;;;1.20;;
67554;SDS011;54385;53.516;49.456;2023-03-16T08:43:07;3.45;;;1.20;;
67554;SDS011;54385;53.516;49.456;2023-03-16T08:45:33;4.80;;;1.40;;
67554;SDS011;54385;53.516;49.456;2023-03-16T08:50:26;5.65;;;0.90;;
67554;SDS011;54385;53.516;49.456;2023-03-16T08:52:53;4.32;;;0.80;;
67554;SDS011;54385;53.516;49.456;2023-03-16T08:55:19;3.03;;;0.90;;
67554;SDS011;54385;53.516;49.456;2023-03-16T08:57:46;6.15;;;1.17;;
67554;SDS011;54385;53.516;49.456;2023-03-16T09:00:13;3.00;;;1.05;;
67554;SDS011;54385;53.516;49.456;2023-03-16T09:02:40;3.60;;;1.25;;
67554;SDS011;54385;53.516;49.456;2023-03-16T09:05:09;8.45;;;1.20;;
67554;SDS011;54385;53.516;49.456;2023-03-16T09:07:37;4.22;;;1.05;;
67554;SDS011;54385;53.516;49.456;2023-03-16T09:10:07;3.92;;;1.45;;
67554;SDS011;54385;53.516;49.456;2023-03-16T09:12:38;9.68;;;1.58;;
67554;SDS011;54385;53.516;49.456;2023-03-16T09:15:05;10.35;;;1.52;;
67554;SDS011;54385;53.516;49.456;2023-03-16T09:17:33;6.18;;;1.15;;
67554;SDS011;54385;53.516;49.456;2023-03-16T09:20:01;4.80;;;1.38;;
67554;SDS011;54385;53.516;49.456;2023-03-16T09:22:29;13.32;;;1.58;;
67554;SDS011;54385;53.516;49.456;2023-03-16T09:24:56;8.30;;;1.30;;
67554;SDS011;54385;53.516;49.456;2023-03-16T09:27:22;9.18;;;1.63;;
67554;SDS011;54385;53.516;49.456;2023-03-16T09:29:53;7.93;;;1.55;;
67554;SDS011;54385;53.516;49.456;2023-03-16T09:32:22;15.40;;;1.85;;
67554;SDS011;54385;53.516;49.456;2023-03-16T09:34:48;11.52;;;1.92;;
67554;SDS011;54385;53.516;49.456;2023-03-16T09:37:15;10.82;;;1.48;;
67554;SDS011;54385;53.516;49.456;2023-03-16T09:39:41;12.68;;;2.65;;
67554;SDS011;54385;53.516;49.456;2023-03-16T09:47:28;24.60;;;2.83;;
67554;SDS011;54385;53.516;49.456;2023-03-16T09:49:58;10.60;;;2.40;;
67554;SDS011;54385;53.516;49.456;2023-03-16T09:52:31;20.83;;;2.45;;
67554;SDS011;54385;53.516;49.456;2023-03-16T09:57:59;8.93;;;2.03;;
67554;SDS011;54385;53.516;49.456;2023-03-16T10:00:30;9.13;;;1.58;;
67554;SDS011;54385;53.516;49.456;2023-03-16T10:05:54;11.13;;;2.25;;
67554;SDS011;54385;53.516;49.456;2023-03-16T10:08:28;17.77;;;2.45;;
67554;SDS011;54385;53.516;49.456;2023-03-16T10:16:47;16.75;;;2.42;;
67554;SDS011;54385;53.516;49.456;2023-03-16T10:19:32;7.32;;;1.17;;
67554;SDS011;54385;53.516;49.456;2023-03-16T10:22:08;10.15;;;1.48;;
67554;SDS011;54385;53.516;49.456;2023-03-16T10:27:31;8.15;;;2.67;;
67554;SDS011;54385;53.516;49.456;2023-03-16T10:30:01;13.90;;;2.15;;
67554;SDS011;54385;53.516;49.456;2023-03-16T10:32:33;6.50;;;1.52;;
67554;SDS011;54385;53.516;49.456;2023-03-16T10:35:02;13.10;;;3.00;;
67554;SDS011;54385;53.516;49.456;2023-03-16T10:37:58;8.93;;;1.08;;
67554;SDS011;54385;53.516;49.456;2023-03-16T10:40:25;16.35;;;2.13;;
67554;SDS011;54385;53.516;49.456;2023-03-16T10:42:55;11.80;;;1.80;;
67554;SDS011;54385;53.516;49.456;2023-03-16T10:45:23;12.20;;;2.33;;
67554;SDS011;54385;53.516;49.456;2023-03-16T10:48:07;13.88;;;2.00;;
67554;SDS011;54385;53.516;49.456;2023-03-16T10:50:40;10.07;;;2.25;;
67554;SDS011;54385;53.516;49.456;2023-03-16T10:53:14;10.95;;;2.67;;
67554;SDS011;54385;53.516;49.456;2023-03-16T10:55:45;11.40;;;2.00;;
67554;SDS011;54385;53.516;49.456;2023-03-16T10:58:24;8.75;;;1.58;;
67554;SDS011;54385;53.516;49.456;2023-03-16T11:00:54;14.00;;;1.70;;
67554;SDS011;54385;53.516;49.456;2023-03-16T11:03:23;7.57;;;1.58;;
67554;SDS011;54385;53.516;49.456;2023-03-16T11:05:59;8.65;;;1.23;;
67554;SDS011;54385;53.516;49.456;2023-03-16T11:08:30;9.45;;;1.83;;
67554;SDS011;54385;53.516;49.456;2023-03-16T11:11:34;11.00;;;2.10;;
67554;SDS011;54385;53.516;49.456;2023-03-16T11:13:58;8.27;;;1.55;;
67554;SDS011;54385;53.516;49.456;2023-03-16T11:16:59;10.52;;;1.73;;
67554;SDS011;54385;53.516;49.456;2023-03-16T11:19:32;6.53;;;1.63;;
67554;SDS011;54385;53.516;49.456;2023-03-16T11:27:40;7.30;;;1.10;;
67554;SDS011;54385;53.516;49.456;2023-03-16T11:38:19;12.25;;;2.17;;
67554;SDS011;54385;53.516;49.456;2023-03-16T11:40:57;5.47;;;1.52;;
67554;SDS011;54385;53.516;49.456;2023-03-16T11:46:14;7.47;;;1.42;;
67554;SDS011;54385;53.516;49.456;2023-03-16T11:51:35;6.63;;;1.40;;
67554;SDS011;54385;53.516;49.456;2023-03-16T11:56:50;11.07;;;1.20;;
67554;SDS011;54385;53.516;49.456;2023-03-16T11:59:27;7.25;;;1.67;;
67554;SDS011;54385;53.516;49.456;2023-03-16T12:08:30;4.25;;;1.50;;
67554;SDS011;54385;53.516;49.456;2023-03-16T12:11:23;8.02;;;3.45;;
67554;SDS011;54385;53.516;49.456;2023-03-16T12:19:42;12.18;;;2.72;;
67554;SDS011;54385;53.516;49.456;2023-03-16T12:22:17;5.28;;;1.23;;
67554;SDS011;54385;53.516;49.456;2023-03-16T12:24:47;4.25;;;1.40;;
67554;SDS011;54385;53.516;49.456;2023-03-16T12:27:36;8.02;;;1.40;;
67554;SDS011;54385;53.516;49.456;2023-03-16T12:32:54;3.28;;;0.73;;
67554;SDS011;54385;53.516;49.456;2023-03-16T12:43:44;4.32;;;0.93;;
67554;SDS011;54385;53.516;49.456;2023-03-16T12:47:13;3.70;;;1.27;;
67554;SDS011;54385;53.516;49.456;2023-03-16T12:49:35;6.05;;;1.00;;
67554;SDS011;54385;53.516;49.456;2023-03-16T12:52:04;4.22;;;1.15;;
67554;SDS011;54385;53.516;49.456;2023-03-16T12:54:33;5.50;;;1.02;;
67554;SDS011;54385;53.516;49.456;2023-03-16T12:57:00;3.88;;;2.53;;
67554;SDS011;54385;53.516;49.456;2023-03-16T12:59:40;5.72;;;1.48;;
67554;SDS011;54385;53.516;49.456;2023-03-16T13:02:13;5.03;;;1.00;;
67554;SDS011;54385;53.516;49.456;2023-03-16T13:04:47;5.70;;;1.00;;
67554;SDS011;54385;53.516;49.456;2023-03-16T13:07:25;7.65;;;1.10;;
67554;SDS011;54385;53.516;49.456;2023-03-16T13:10:09;3.30;;;0.98;;
67554;SDS011;54385;53.516;49.456;2023-03-16T13:12:39;3.40;;;0.82;;
67554;SDS011;54385;53.516;49.456;2023-03-16T13:15:27;0.90;;;0.70;;
67554;SDS011;54385;53.516;49.456;2023-03-16T13:28:35;1.58;;;0.80;;
67554;SDS011;54385;53.516;49.456;2023-03-16T13:31:04;2.38;;;0.70;;
67554;SDS011;54385;53.516;49.456;2023-03-16T13:33:44;4.45;;;0.93;;
67554;SDS011;54385;53.516;49.456;2023-03-16T13:36:13;2.00;;;0.85;;
67554;SDS011;54385;53.516;49.456;2023-03-16T13:38:40;1.48;;;0.45;;
67554;SDS011;54385;53.516;49.456;2023-03-16T13:41:10;1.27;;;0.70;;
67554;SDS011;54385;53.516;49.456;2023-03-16T13:43:41;6.00;;;0.90;;
67554;SDS011;54385;53.516;49.456;2023-03-16T13:46:18;5.15;;;0.90;;
67554;SDS011;54385;53.516;49.456;2023-03-16T13:48:47;4.35;;;1.00;;
67554;SDS011;54385;53.516;49.456;2023-03-16T13:51:18;3.55;;;0.93;;
67554;SDS011;54385;53.516;49.456;2023-03-16T13:53:47;2.20;;;0.73;;
67554;SDS011;54385;53.516;49.456;2023-03-16T13:56:16;1.48;;;0.70;;
67554;SDS011;54385;53.516;49.456;2023-03-16T13:58:48;3.08;;;0.70;;
67554;SDS011;54385;53.516;49.456;2023-03-16T14:01:30;2.08;;;0.70;;
67554;SDS011;54385;53.516;49.456;2023-03-16T14:03:59;2.38;;;1.02;;
67554;SDS011;54385;53.516;49.456;2023-03-16T14:06:33;2.15;;;0.80;;
67554;SDS011;54385;53.516;49.456;2023-03-16T14:09:04;1.42;;;0.90;;
67554;SDS011;54385;53.516;49.456;2023-03-16T14:11:37;1.00;;;0.70;;
67554;SDS011;54385;53.516;49.456;2023-03-16T14:16:38;1.75;;;0.80;;
67554;SDS011;54385;53.516;49.456;2023-03-16T14:19:06;3.40;;;0.70;;
67554;SDS011;54385;53.516;49.456;2023-03-16T14:21:43;0.98;;;0.70;;
67554;SDS011;54385;53.516;49.456;2023-03-16T14:27:07;1.08;;;0.82;;
67554;SDS011;54385;53.516;49.456;2023-03-16T14:29:40;2.08;;;0.63;;
67554;SDS011;54385;53.516;49.456;2023-03-16T14:32:26;1.65;;;0.95;;
67554;SDS011;54385;53.516;49.456;2023-03-16T14:35:29;5.88;;;2.55;;
67554;SDS011;54385;53.516;49.456;2023-03-16T14:37:50;0.77;;;0.60;;
67554;SDS011;54385;53.516;49.456;2023-03-16T14:40:21;1.17;;;0.65;;
67554;SDS011;54385;53.516;49.456;2023-03-16T14:42:53;1.92;;;0.95;;
67554;SDS011;54385;53.516;49.456;2023-03-16T14:45:22;1.48;;;0.70;;
67554;SDS011;54385;53.516;49.456;2023-03-16T14:47:54;1.42;;;0.80;;
67554;SDS011;54385;53.516;49.456;2023-03-16T14:50:30;0.90;;;0.80;;
67554;SDS011;54385;53.516;49.456;2023-03-16T14:52:58;2.08;;;0.90;;
67554;SDS011;54385;53.516;49.456;2023-03-16T14:55:27;2.38;;;0.85;;
67554;SDS011;54385;53.516;49.456;2023-03-16T14:57:54;4.10;;;1.20;;
67554;SDS011;54385;53.516;49.456;2023-03-16T15:00:20;3.80;;;0.82;;
67554;SDS011;54385;53.516;49.456;2023-03-16T15:02:58;1.65;;;0.82;;
67554;SDS011;54385;53.516;49.456;2023-03-16T15:05:31;2.08;;;0.88;;
67554;SDS011;54385;53.516;49.456;2023-03-16T15:08:01;3.45;;;0.90;;
67554;SDS011;54385;53.516;49.456;2023-03-16T15:10:35;0.85;;;0.65;;
67554;SDS011;54385;53.516;49.456;2023-03-16T15:13:10;1.50;;;0.82;;
67554;SDS011;54385;53.516;49.456;2023-03-16T15:16:23;2.08;;;1.02;;
67554;SDS011;54385;53.516;49.456;2023-03-16T15:18:49;2.38;;;0.88;;
67554;SDS011;54385;53.516;49.456;2023-03-16T15:21:17;1.30;;;0.90;;
67554;SDS011;54385;53.516;49.456;2023-03-16T15:23:47;1.52;;;0.85;;
67554;SDS011;54385;53.516;49.456;2023-03-16T15:26:14;1.98;;;1.00;;
67554;SDS011;54385;53.516;49.456;2023-03-16T15:28:46;1.67;;;1.05;;
67554;SDS011;54385;53.516;49.456;2023-03-16T15:33:41;2.47;;;1.02;;
67554;SDS011;54385;53.516;49.456;2023-03-16T15:36:16;2.33;;;1.30;;
67554;SDS011;54385;53.516;49.456;2023-03-16T15:38:45;1.55;;;1.00;;
67554;SDS011;54385;53.516;49.456;2023-03-16T15:41:13;3.15;;;1.17;;
67554;SDS011;54385;53.516;49.456;2023-03-16T15:43:39;2.03;;;1.10;;
67554;SDS011;54385;53.516;49.456;2023-03-16T15:46:08;2.83;;;1.33;;
67554;SDS011;54385;53.516;49.456;2023-03-16T15:48:36;4.00;;;1.20;;
67554;SDS011;54385;53.516;49.456;2023-03-16T15:53:38;1.77;;;0.98;;
67554;SDS011;54385;53.516;49.456;2023-03-16T15:56:12;2.90;;;0.80;;
67554;SDS011;54385;53.516;49.456;2023-03-16T15:58:44;1.30;;;0.80;;
67554;SDS011;54385;53.516;49.456;2023-03-16T16:01:22;1.98;;;0.90;;
67554;SDS011;54385;53.516;49.456;2023-03-16T16:03:51;1.73;;;0.90;;
67554;SDS011;54385;53.516;49.456;2023-03-16T16:06:18;2.13;;;0.85;;
67554;SDS011;54385;53.516;49.456;2023-03-16T16:08:45;3.92;;;1.50;;
67554;SDS011;54385;53.516;49.456;2023-03-16T16:11:14;1.65;;;1.30;;
67554;SDS011;54385;53.516;49.456;2023-03-16T16:13:42;3.25;;;1.02;;
67554;SDS011;54385;53.516;49.456;2023-03-16T16:16:13;1.92;;;1.10;;
67554;SDS011;54385;53.516;49.456;2023-03-16T16:18:41;5.72;;;1.00;;
67554;SDS011;54385;53.516;49.456;2023-03-16T16:23:39;1.02;;;0.80;;
67554;SDS011;54385;53.516;49.456;2023-03-16T16:28:36;1.10;;;0.63;;
67554;SDS011;54385;53.516;49.456;2023-03-16T16:31:07;3.47;;;1.30;;
67554;SDS011;54385;53.516;49.456;2023-03-16T16:33:38;3.10;;;0.80;;
67554;SDS011;54385;53.516;49.456;2023-03-16T16:36:05;1.55;;;1.00;;
67554;SDS011;54385;53.516;49.456;2023-03-16T16:38:37;1.98;;;1.08;;
67554;SDS011;54385;53.516;49.456;2023-03-16T16:41:07;1.25;;;0.90;;
67554;SDS011;54385;53.516;49.456;2023-03-16T16:43:39;2.20;;;0.80;;
67554;SDS011;54385;53.516;49.456;2023-03-16T16:46:21;3.53;;;1.10;;
67554;SDS011;54385;53.516;49.456;2023-03-16T16:48:51;2.25;;;0.82;;
67554;SDS011;54385;53.516;49.456;2023-03-16T16:51:23;1.58;;;0.82;;
67554;SDS011;54385;53.516;49.456;2023-03-16T16:53:52;4.50;;;1.02;;
67554;SDS011;54385;53.516;49.456;2023-03-16T16:56:21;1.00;;;0.68;;
67554;SDS011;54385;53.516;49.456;2023-03-16T16:58:53;1.60;;;1.10;;